Time;durP1;ratioP1;P1;durP2;ratioP2;P2;SDS_P1;SDS_P2;PMS_P1;PMS_P2;Temp;Humidity;BMP_temperature;BMP_pressure;BME280_temperature;BME280_humidity;BME280_pressure;Samples;Min_cycle;Max_cycle;Signal;HPM_P1;HPM_P2
2022/03/10 00:01:46;;;;;;;34.78;21.80;;;;;;;2.84;56.93;102241.47;5032824;28;20412;-53
2022/03/10 00:04:12;;;;;;;36.30;23.42;;;;;;;2.79;57.15;102233.91;5033028;28;20030;-53
2022/03/10 00:06:37;;;;;;;35.90;22.02;;;;;;;2.77;57.23;102241.50;5032892;28;20060;-53
2022/03/10 00:09:03;;;;;;;34.92;21.42;;;;;;;2.74;57.53;102240.03;5032857;28;20057;-51
2022/03/10 00:11:28;;;;;;;34.05;21.27;;;;;;;2.72;57.35;102244.88;5032602;28;20083;-52
2022/03/10 00:13:54;;;;;;;35.05;20.70;;;;;;;2.70;58.14;102240.69;5032379;28;20034;-54
2022/03/10 00:16:20;;;;;;;33.65;21.10;;;;;;;2.69;57.47;102249.94;5032525;28;20432;-52
2022/03/10 00:18:46;;;;;;;36.20;19.90;;;;;;;2.64;58.15;102250.59;5032920;28;20021;-53
2022/03/10 00:21:11;;;;;;;34.10;21.17;;;;;;;2.62;58.46;102250.84;5033281;28;20029;-52
2022/03/10 00:23:36;;;;;;;33.83;20.23;;;;;;;2.58;58.33;102252.31;5033038;28;20029;-54
2022/03/10 00:26:02;;;;;;;33.42;20.45;;;;;;;2.54;58.85;102247.50;5032641;28;20033;-54
2022/03/10 00:28:27;;;;;;;34.58;20.63;;;;;;;2.50;59.03;102241.63;5033083;28;20033;-54
2022/03/10 00:30:52;;;;;;;35.47;20.40;;;;;;;2.47;58.37;102240.19;5032588;28;20037;-55
2022/03/10 00:33:18;;;;;;;36.70;21.02;;;;;;;2.44;58.41;102240.63;5032352;28;20032;-53
2022/03/10 00:35:44;;;;;;;35.05;20.52;;;;;;;2.47;58.87;102245.66;5032660;28;20473;-55
2022/03/10 00:38:09;;;;;;;35.90;22.48;;;;;;;2.45;58.62;102245.03;5033179;28;20115;-52
2022/03/10 00:40:34;;;;;;;34.03;21.25;;;;;;;2.41;59.36;102245.69;5032432;28;20105;-54
2022/03/10 00:42:59;;;;;;;35.20;21.40;;;;;;;2.34;59.92;102253.88;5032729;28;20029;-55
2022/03/10 00:45:28;;;;;;;36.88;23.25;;;;;;;2.26;60.16;102249.53;5032047;28;20068;-54
2022/03/10 00:47:54;;;;;;;36.05;22.60;;;;;;;2.17;60.02;102254.38;5032296;28;20037;-54
2022/03/10 00:50:20;;;;;;;33.88;21.60;;;;;;;2.14;60.50;102259.44;5032684;28;20424;-53
2022/03/10 00:52:46;;;;;;;39.42;23.13;;;;;;;2.10;60.66;102261.75;5032759;28;20021;-54
2022/03/10 00:55:15;;;;;;;35.60;23.25;;;;;;;2.05;60.71;102258.00;5031974;28;20072;-55
2022/03/10 00:57:40;;;;;;;36.92;21.98;;;;;;;1.98;60.78;102258.00;5032451;28;20392;-54
2022/03/10 01:00:07;;;;;;;40.75;23.15;;;;;;;1.96;61.08;102260.09;5032593;28;20025;-52
2022/03/10 01:02:34;;;;;;;37.22;22.02;;;;;;;1.91;61.00;102268.91;5032048;28;20034;-54
2022/03/10 01:04:59;;;;;;;34.80;22.58;;;;;;;1.90;60.91;102264.50;5032249;28;20044;-53
2022/03/10 01:07:24;;;;;;;35.08;22.08;;;;;;;1.89;61.23;102267.47;5032929;28;20021;-52
2022/03/10 01:09:51;;;;;;;34.53;21.95;;;;;;;1.86;61.77;102260.53;5032225;28;20033;-52
2022/03/10 01:12:16;;;;;;;36.08;22.08;;;;;;;1.83;61.66;102263.69;5031604;28;20049;-53
2022/03/10 01:14:42;;;;;;;33.42;21.23;;;;;;;1.79;61.88;102266.00;5032794;28;20029;-54
2022/03/10 01:17:07;;;;;;;35.67;22.58;;;;;;;1.75;62.01;102267.47;5031643;28;20338;-53
2022/03/10 01:19:32;;;;;;;32.13;20.58;;;;;;;1.73;61.71;102264.13;5032016;28;20108;-53
2022/03/10 01:21:57;;;;;;;34.42;21.38;;;;;;;1.67;62.05;102263.09;5032346;28;20041;-53
2022/03/10 01:24:23;;;;;;;36.00;21.15;;;;;;;1.63;62.53;102259.09;5032208;28;20032;-51
2022/03/10 01:26:49;;;;;;;35.47;21.80;;;;;;;1.60;62.56;102256.81;5035737;28;20037;-53
2022/03/10 01:29:14;;;;;;;35.00;21.83;;;;;;;1.56;62.88;102250.09;5035671;28;20025;-51
2022/03/10 01:31:40;;;;;;;36.78;21.50;;;;;;;1.53;62.74;102261.41;5035860;28;20025;-54
2022/03/10 01:34:05;;;;;;;37.35;21.50;;;;;;;1.50;62.81;102251.75;5033833;28;20033;-53
2022/03/10 01:36:30;;;;;;;35.67;22.23;;;;;;;1.50;62.71;102254.50;5035384;28;20025;-53
2022/03/10 01:38:56;;;;;;;36.20;21.95;;;;;;;1.51;62.72;102253.44;5035482;28;20040;-50
2022/03/10 01:41:21;;;;;;;36.13;22.85;;;;;;;1.50;62.76;102253.66;5034930;28;20534;-54
2022/03/10 01:44:01;;;;;;;33.67;21.70;;;;;;;1.49;62.90;102255.53;5035884;28;20472;-54
2022/03/10 01:46:27;;;;;;;35.65;21.98;;;;;;;1.42;63.19;102251.97;5035770;28;20064;-55
2022/03/10 01:48:53;;;;;;;37.33;22.67;;;;;;;1.42;62.79;102253.88;5033727;28;20029;-54
2022/03/10 01:51:18;;;;;;;36.50;21.80;;;;;;;1.41;63.26;102261.19;5034610;28;20496;-51
2022/03/10 01:53:44;;;;;;;35.42;22.13;;;;;;;1.42;63.13;102251.16;5035331;28;20033;-55
2022/03/10 01:56:10;;;;;;;34.40;22.63;;;;;;;1.41;62.73;102253.03;5034871;28;20112;-54
2022/03/10 01:58:37;;;;;;;37.28;22.77;;;;;;;1.42;63.12;102257.44;5035832;28;20064;-54
2022/03/10 02:01:03;;;;;;;35.05;22.65;;;;;;;1.38;63.30;102250.72;5034018;28;20116;-56
2022/03/10 02:03:28;;;;;;;35.63;23.15;;;;;;;1.33;63.00;102240.44;5035287;28;20036;-55
2022/03/10 02:05:54;;;;;;;37.75;23.17;;;;;;;1.33;63.30;102245.06;5034901;28;20029;-53
2022/03/10 02:11:14;;;;;;;36.92;21.48;;;;;;;1.30;63.27;102254.50;4997719;28;20188;-55
2022/03/10 02:13:39;;;;;;;36.95;22.77;;;;;;;1.29;63.71;102249.22;5035503;28;20112;-52
2022/03/10 02:18:53;;;;;;;37.75;22.52;;;;;;;1.22;64.70;102241.91;5035267;28;20044;-55
2022/03/10 02:21:18;;;;;;;36.20;21.10;;;;;;;1.19;64.24;102247.75;5034837;28;20104;-56
2022/03/10 02:23:44;;;;;;;36.97;23.10;;;;;;;1.11;63.86;102234.34;5035453;28;20033;-51
2022/03/10 02:26:11;;;;;;;36.30;22.08;;;;;;;1.14;64.41;102242.13;5035173;28;20025;-57
2022/03/10 02:28:37;;;;;;;35.92;22.23;;;;;;;1.09;64.54;102237.28;5034637;28;20030;-54
2022/03/10 02:31:02;;;;;;;35.13;22.50;;;;;;;1.06;64.71;102240.41;5034537;28;20028;-54
2022/03/10 02:33:27;;;;;;;36.63;22.70;;;;;;;1.02;64.82;102238.31;5034311;28;20036;-53
2022/03/10 02:35:53;;;;;;;35.05;22.05;;;;;;;0.99;65.41;102238.75;5033253;28;20056;-54
2022/03/10 02:38:19;;;;;;;38.53;22.65;;;;;;;0.97;64.84;102243.56;5034291;28;20067;-54
2022/03/10 02:40:46;;;;;;;36.75;21.67;;;;;;;0.96;65.15;102245.44;5034737;28;20059;-59
2022/03/10 02:43:11;;;;;;;35.10;20.98;;;;;;;0.93;65.41;102243.13;5034510;28;20057;-54
2022/03/10 02:45:36;;;;;;;35.85;22.55;;;;;;;0.93;65.11;102243.13;5034325;28;20496;-52
2022/03/10 02:48:02;;;;;;;34.33;22.05;;;;;;;0.88;65.12;102242.91;5034150;28;20036;-53
2022/03/10 02:50:28;;;;;;;36.35;23.13;;;;;;;0.86;65.59;102236.81;5034202;28;20045;-54
2022/03/10 02:52:54;;;;;;;34.83;22.08;;;;;;;0.85;66.00;102244.16;5034831;28;20068;-54
2022/03/10 02:55:20;;;;;;;35.83;21.85;;;;;;;0.87;65.67;102238.50;5034700;28;20083;-55
2022/03/10 02:57:45;;;;;;;36.20;22.38;;;;;;;0.88;65.97;102248.34;5034026;28;20040;-53
2022/03/10 03:00:10;;;;;;;33.50;21.55;;;;;;;0.86;66.16;102247.72;5034280;28;20030;-54
2022/03/10 03:02:38;;;;;;;35.58;22.77;;;;;;;0.82;66.32;102244.56;5034214;28;20063;-55
2022/03/10 03:05:04;;;;;;;36.15;21.52;;;;;;;0.79;66.38;102250.44;5033644;28;20068;-52
2022/03/10 03:07:29;;;;;;;34.40;21.50;;;;;;;0.78;66.44;102237.88;5034334;28;20499;-56
2022/03/10 03:09:55;;;;;;;33.35;21.25;;;;;;;0.80;66.70;102245.81;5048210;23;20041;-56
2022/03/10 03:12:20;;;;;;;35.35;22.10;;;;;;;0.77;66.73;102247.91;5052333;28;20033;-56
2022/03/10 03:14:46;;;;;;;36.72;23.23;;;;;;;0.72;66.51;102247.69;5052751;28;20029;-55
2022/03/10 03:17:11;;;;;;;34.70;22.00;;;;;;;0.72;66.73;102255.00;5052361;28;20033;-54
2022/03/10 03:19:37;;;;;;;38.30;25.08;;;;;;;0.70;66.46;102251.69;5034720;28;20040;-55
2022/03/10 03:22:02;;;;;;;42.92;28.60;;;;;;;0.66;67.13;102251.25;5052604;28;20106;-55
2022/03/10 03:24:27;;;;;;;37.80;26.20;;;;;;;0.64;67.17;102252.47;5053219;28;20029;-54
2022/03/10 03:26:53;;;;;;;34.95;23.85;;;;;;;0.62;67.39;102253.53;5053285;28;20040;-54
2022/03/10 03:29:18;;;;;;;34.95;23.25;;;;;;;0.61;67.33;102259.19;5052566;28;20100;-53
2022/03/10 03:31:43;;;;;;;36.92;23.23;;;;;;;0.57;67.46;102255.16;5053132;28;20577;-52
2022/03/10 03:34:11;;;;;;;33.97;22.80;;;;;;;0.53;67.76;102260.19;5052896;28;20025;-54
2022/03/10 03:36:41;;;;;;;35.33;22.80;;;;;;;0.47;68.51;102261.84;5052221;28;20033;-56
2022/03/10 03:39:07;;;;;;;34.83;20.60;;;;;;;0.45;68.15;102271.25;5053267;28;20037;-55
2022/03/10 03:41:33;;;;;;;34.10;21.67;;;;;;;0.40;68.41;102263.72;5052464;28;20025;-56
2022/03/10 03:43:58;;;;;;;36.60;20.85;;;;;;;0.38;68.47;102256.78;5052717;28;20055;-55
2022/03/10 03:46:24;;;;;;;35.25;20.08;;;;;;;0.33;68.56;102259.28;5034824;28;20319;-55
2022/03/10 03:48:49;;;;;;;35.17;20.33;;;;;;;0.29;68.78;102258.84;5052701;28;20033;-56
2022/03/10 03:51:14;;;;;;;33.95;20.85;;;;;;;0.29;68.03;102264.28;5052191;28;20107;-56
2022/03/10 03:53:40;;;;;;;35.03;20.70;;;;;;;0.22;68.86;102261.56;5052459;28;20031;-56
2022/03/10 03:56:05;;;;;;;37.42;21.45;;;;;;;0.23;68.88;102267.81;5052975;28;20036;-56
2022/03/10 03:58:30;;;;;;;34.22;20.20;;;;;;;0.20;69.10;102268.22;5052022;28;20104;-55
2022/03/10 04:00:55;;;;;;;33.50;20.92;;;;;;;0.16;69.20;102275.94;5034313;28;20396;-54
2022/03/10 04:03:22;;;;;;;35.10;20.23;;;;;;;0.04;69.93;102266.69;5052195;28;20044;-55
2022/03/10 04:05:47;;;;;;;34.97;20.55;;;;;;;0.05;69.62;102273.81;5051820;28;20029;-54
2022/03/10 04:08:12;;;;;;;34.30;21.42;;;;;;;0.00;70.29;102277.13;5051400;28;20036;-53
2022/03/10 04:10:38;;;;;;;38.25;22.40;;;;;;;-0.01;70.14;102281.72;5051196;28;20056;-55
2022/03/10 04:13:05;;;;;;;37.78;22.20;;;;;;;-0.09;70.28;102267.41;5052046;28;20438;-55
2022/03/10 04:15:31;;;;;;;33.33;22.08;;;;;;;-0.07;70.75;102284.38;5052132;28;20033;-54
2022/03/10 04:17:57;;;;;;;34.75;21.20;;;;;;;-0.13;71.04;102287.91;5034297;28;20126;-55
2022/03/10 04:20:22;;;;;;;37.17;22.30;;;;;;;-0.20;71.08;102286.00;5052228;28;20021;-55
2022/03/10 04:22:48;;;;;;;37.42;21.77;;;;;;;-0.23;71.16;102289.09;5051973;28;20484;-54
2022/03/10 04:25:13;;;;;;;34.60;21.80;;;;;;;-0.26;71.38;102286.78;5051945;28;20445;-55
2022/03/10 04:27:40;;;;;;;35.45;21.70;;;;;;;-0.29;71.06;102276.31;5052353;28;20039;-56
2022/03/10 04:30:05;;;;;;;35.03;21.27;;;;;;;-0.29;71.09;102292.63;5034278;28;20443;-57
2022/03/10 04:32:44;;;;;;;36.08;20.95;;;;;;;-0.30;71.19;102288.22;5051921;28;20029;-55
2022/03/10 04:35:12;;;;;;;36.92;21.27;;;;;;;-0.37;71.81;102285.44;5051570;28;20051;-56
2022/03/10 04:37:37;;;;;;;35.35;21.88;;;;;;;-0.39;71.47;102290.22;5051953;28;20032;-56
2022/03/10 04:40:06;;;;;;;35.10;21.50;;;;;;;-0.43;71.14;102280.81;5051137;28;20025;-56
2022/03/10 04:42:32;;;;;;;36.10;21.58;;;;;;;-0.42;71.54;102287.06;5051244;28;20027;-56
2022/03/10 04:44:57;;;;;;;35.25;20.30;;;;;;;-0.46;71.64;102281.19;5051435;28;20119;-56
2022/03/10 04:47:22;;;;;;;37.65;23.08;;;;;;;-0.49;71.62;102285.16;5052025;28;20476;-57
2022/03/10 04:49:47;;;;;;;35.30;21.42;;;;;;;-0.53;71.64;102289.28;5051429;28;20029;-54
2022/03/10 04:52:13;;;;;;;36.85;23.52;;;;;;;-0.58;72.20;102283.63;5051455;28;20036;-55
2022/03/10 04:54:38;;;;;;;35.00;21.48;;;;;;;-0.61;72.20;102284.00;5051276;28;20473;-55
2022/03/10 04:57:03;;;;;;;34.97;21.60;;;;;;;-0.61;72.36;102289.44;5051469;28;20024;-55
2022/03/10 04:59:31;;;;;;;35.08;21.42;;;;;;;-0.59;72.28;102286.50;5053553;28;20083;-57
2022/03/10 05:01:56;;;;;;;35.70;21.83;;;;;;;-0.58;72.41;102286.31;5055839;28;20025;-57
2022/03/10 05:04:21;;;;;;;36.17;21.85;;;;;;;-0.57;72.30;102284.44;5056042;28;20070;-56
2022/03/10 05:06:47;;;;;;;36.50;21.92;;;;;;;-0.56;72.40;102286.13;5055408;28;20430;-55
2022/03/10 05:09:12;;;;;;;34.58;20.55;;;;;;;-0.55;71.98;102290.53;5055148;28;20083;-56
2022/03/10 05:11:37;;;;;;;37.08;21.38;;;;;;;-0.55;72.30;102290.53;5054747;28;20045;-55
2022/03/10 05:14:03;;;;;;;35.95;21.38;;;;;;;-0.59;72.44;102287.34;5055192;28;20077;-56
2022/03/10 05:16:28;;;;;;;38.88;21.95;;;;;;;-0.58;71.69;102290.91;5055832;28;20029;-55
2022/03/10 05:18:53;;;;;;;35.70;21.17;;;;;;;-0.61;72.42;102285.88;5055309;28;20469;-55
2022/03/10 05:21:18;;;;;;;33.50;20.50;;;;;;;-0.64;71.86;102290.66;5055251;28;20025;-56
2022/03/10 05:23:44;;;;;;;36.08;21.20;;;;;;;-0.61;71.97;102296.75;5055469;28;20511;-54
2022/03/10 05:26:09;;;;;;;35.17;21.50;;;;;;;-0.61;71.81;102302.19;5054688;28;20060;-52
2022/03/10 05:28:34;;;;;;;35.45;22.10;;;;;;;-0.65;72.31;102291.69;5036998;28;20040;-55
2022/03/10 05:30:59;;;;;;;34.13;20.90;;;;;;;-0.66;72.12;102300.06;5055302;28;20025;-55
2022/03/10 05:33:25;;;;;;;37.55;21.05;;;;;;;-0.65;72.46;102293.56;5055412;28;20029;-55
2022/03/10 05:35:50;;;;;;;34.83;21.30;;;;;;;-0.66;72.10;102300.06;5055105;28;20383;-55
2022/03/10 05:38:16;;;;;;;34.72;21.90;;;;;;;-0.69;72.33;102292.28;5055156;28;20021;-57
2022/03/10 05:40:41;;;;;;;36.33;22.15;;;;;;;-0.71;72.07;102297.91;5054864;28;20025;-55
2022/03/10 05:43:06;;;;;;;35.42;22.48;;;;;;;-0.72;72.09;102298.09;5054871;28;20035;-55
2022/03/10 05:45:32;;;;;;;33.92;20.63;;;;;;;-0.75;72.65;102290.31;5055090;28;20512;-55
2022/03/10 05:47:57;;;;;;;34.05;21.95;;;;;;;-0.81;72.77;102298.22;5054519;28;20033;-54
2022/03/10 05:50:25;;;;;;;36.78;22.08;;;;;;;-0.87;72.66;102299.03;5053871;28;20029;-54
2022/03/10 05:52:50;;;;;;;34.67;21.08;;;;;;;-0.88;72.97;102294.63;5054759;28;20095;-56
2022/03/10 05:55:16;;;;;;;35.53;20.80;;;;;;;-0.89;72.83;102298.38;5054575;28;20553;-55
2022/03/10 05:57:42;;;;;;;37.35;23.10;;;;;;;-0.87;73.00;102284.56;5054040;28;20025;-55
2022/03/10 06:00:10;;;;;;;37.45;22.88;;;;;;;-0.88;73.01;102297.34;5054333;28;20529;-55
2022/03/10 06:02:35;;;;;;;35.72;22.98;;;;;;;-0.88;73.12;102285.59;5055007;28;20469;-56
2022/03/10 06:05:01;;;;;;;34.47;22.83;;;;;;;-0.86;72.58;102289.84;5055060;28;20036;-55
2022/03/10 06:07:30;;;;;;;34.67;22.35;;;;;;;-0.86;72.94;102295.28;5053923;28;20461;-56
2022/03/10 06:09:55;;;;;;;34.95;22.73;;;;;;;-0.88;73.02;102299.19;5053481;28;20025;-55
2022/03/10 06:12:23;;;;;;;36.33;22.48;;;;;;;-0.90;73.45;102293.97;5053228;28;20040;-55
2022/03/10 06:14:48;;;;;;;34.67;21.13;;;;;;;-0.88;73.55;102299.19;5054182;28;20053;-56
2022/03/10 06:17:13;;;;;;;35.17;21.88;;;;;;;-0.87;73.14;102295.44;5054047;28;20062;-56
2022/03/10 06:19:38;;;;;;;35.63;21.80;;;;;;;-0.81;72.33;102289.25;5053993;28;20158;-57
2022/03/10 06:22:04;;;;;;;35.28;21.70;;;;;;;-0.77;72.69;102293.25;5053798;28;20393;-57
2022/03/10 06:24:29;;;;;;;32.80;20.73;;;;;;;-0.74;72.39;102302.88;5054187;28;20029;-56
2022/03/10 06:26:54;;;;;;;33.80;21.23;;;;;;;-0.69;72.16;102306.69;5053387;28;20036;-52
2022/03/10 06:29:20;;;;;;;36.22;21.85;;;;;;;-0.65;72.18;102304.44;5054086;28;20036;-54
2022/03/10 06:31:47;;;;;;;36.63;21.50;;;;;;;-0.60;72.20;102303.84;5054064;28;20052;-52
2022/03/10 06:34:12;;;;;;;34.83;20.15;;;;;;;-0.53;71.80;102308.31;5053822;28;20108;-54
2022/03/10 06:36:38;;;;;;;36.08;20.50;;;;;;;-0.45;71.66;102314.66;5054197;28;20112;-54
2022/03/10 06:39:03;;;;;;;33.75;20.60;;;;;;;-0.38;71.32;102315.56;5054052;28;20414;-56
2022/03/10 06:41:28;;;;;;;33.20;21.25;;;;;;;-0.33;71.22;102311.19;5053519;28;20059;-56
2022/03/10 06:43:54;;;;;;;35.25;21.25;;;;;;;-0.26;70.76;102316.69;5035126;28;20025;-56
2022/03/10 06:46:20;;;;;;;34.13;20.60;;;;;;;-0.21;70.98;102310.66;5053464;28;20035;-55
2022/03/10 06:48:45;;;;;;;35.75;20.73;;;;;;;-0.14;70.52;102314.25;5053572;28;20033;-55
2022/03/10 06:51:10;;;;;;;35.97;21.38;;;;;;;-0.08;70.34;102313.50;5057712;28;20032;-56
2022/03/10 06:53:35;;;;;;;36.17;21.77;;;;;;;-0.03;70.13;102311.00;5054996;28;20017;-56
2022/03/10 06:56:01;;;;;;;33.90;20.80;;;;;;;0.06;69.70;102316.28;5054079;28;20060;-56
2022/03/10 06:58:26;;;;;;;34.10;20.65;;;;;;;0.14;69.51;102321.59;5054023;28;20048;-56
2022/03/10 07:00:51;;;;;;;36.58;21.13;;;;;;;0.19;69.15;102318.28;5054112;28;20025;-56
2022/03/10 07:03:17;;;;;;;35.60;21.23;;;;;;;0.27;69.04;102318.09;5053828;28;20025;-55
2022/03/10 07:05:43;;;;;;;34.03;21.45;;;;;;;0.34;68.89;102329.00;5053637;28;20031;-55
2022/03/10 07:08:10;;;;;;;37.67;21.42;;;;;;;0.42;68.43;102329.69;5053478;28;20024;-56
2022/03/10 07:10:35;;;;;;;34.42;20.00;;;;;;;0.50;68.34;102327.84;5053704;28;20044;-56
2022/03/10 07:13:00;;;;;;;32.03;20.25;;;;;;;0.56;67.96;102324.31;5053378;28;20027;-55
2022/03/10 07:15:26;;;;;;;33.83;20.92;;;;;;;0.62;67.56;102320.78;5053320;28;20132;-56
2022/03/10 07:17:51;;;;;;;34.72;21.02;;;;;;;0.69;67.80;102324.38;5054226;28;20037;-56
2022/03/10 07:20:18;;;;;;;35.85;21.52;;;;;;;0.76;67.08;102327.94;5054134;28;20021;-56
2022/03/10 07:22:45;;;;;;;36.25;20.38;;;;;;;0.85;67.69;102333.25;5054105;28;20496;-56
2022/03/10 07:25:10;;;;;;;33.72;21.25;;;;;;;0.93;67.48;102327.63;5053701;28;20472;-58
2022/03/10 07:27:35;;;;;;;36.10;21.52;;;;;;;0.99;67.27;102325.97;5051373;28;20036;-57
2022/03/10 07:30:02;;;;;;;34.95;21.02;;;;;;;1.09;67.40;102329.09;5052280;28;20028;-56
2022/03/10 07:32:28;;;;;;;37.20;21.05;;;;;;;1.09;66.39;102315.47;5052686;28;20036;-57
2022/03/10 07:34:54;;;;;;;35.33;21.27;;;;;;;1.25;66.54;102330.59;5052760;28;20021;-56
2022/03/10 07:37:19;;;;;;;35.70;21.52;;;;;;;1.34;65.79;102323.09;5034970;28;20077;-56
2022/03/10 07:39:44;;;;;;;36.40;21.45;;;;;;;1.46;66.46;102326.88;5053017;28;20029;-58
2022/03/10 07:42:10;;;;;;;33.90;21.17;;;;;;;1.54;65.44;102323.09;5053634;28;20024;-54
2022/03/10 07:44:36;;;;;;;34.53;20.67;;;;;;;1.67;65.52;102327.72;5053742;28;20472;-55
2022/03/10 07:47:01;;;;;;;36.05;21.70;;;;;;;1.76;64.41;102322.91;5055219;28;20549;-55
2022/03/10 07:49:26;;;;;;;36.90;22.20;;;;;;;1.84;65.15;102326.22;5070922;28;20111;-55
2022/03/10 07:51:51;;;;;;;36.67;21.65;;;;;;;1.92;64.35;102317.00;5071044;28;20038;-55
2022/03/10 07:54:17;;;;;;;34.03;21.23;;;;;;;2.02;64.74;102319.31;5070846;28;20025;-56
2022/03/10 07:56:42;;;;;;;35.58;21.65;;;;;;;2.12;64.66;102318.88;5070830;28;20032;-56
2022/03/10 07:59:08;;;;;;;34.38;21.25;;;;;;;2.23;64.45;102318.22;5071112;28;20028;-56
2022/03/10 08:01:33;;;;;;;33.72;20.77;;;;;;;2.33;63.91;102318.63;5070906;28;20029;-56
2022/03/10 08:03:58;;;;;;;37.55;21.70;;;;;;;2.44;63.93;102319.84;5070832;28;20039;-56
2022/03/10 08:06:26;;;;;;;36.80;20.98;;;;;;;2.52;64.02;102318.75;5070909;28;20028;-55
2022/03/10 08:08:51;;;;;;;33.85;20.95;;;;;;;2.63;63.50;102322.69;5070627;28;20103;-55
2022/03/10 08:11:17;;;;;;;34.38;20.73;;;;;;;2.72;63.14;102315.94;5070184;28;20098;-55
2022/03/10 08:13:43;;;;;;;36.13;21.75;;;;;;;2.87;62.72;102318.41;5068795;28;20024;-57
2022/03/10 08:16:08;;;;;;;33.80;21.17;;;;;;;2.97;62.51;102318.75;5070420;28;20084;-55
2022/03/10 08:18:33;;;;;;;36.85;20.90;;;;;;;3.05;62.78;102314.09;5070549;28;20431;-55
2022/03/10 08:20:59;;;;;;;33.13;20.88;;;;;;;3.17;62.58;102323.28;5070415;28;20038;-57
2022/03/10 08:23:26;;;;;;;34.70;20.33;;;;;;;3.30;62.47;102314.16;5070452;28;20061;-55
2022/03/10 08:25:51;;;;;;;32.17;20.50;;;;;;;3.42;61.69;102317.00;5070336;28;20032;-56
2022/03/10 08:28:17;;;;;;;35.30;21.30;;;;;;;3.53;61.23;102319.03;5070607;28;20042;-56
2022/03/10 08:30:42;;;;;;;33.42;21.50;;;;;;;3.62;60.66;102311.41;5070562;28;20028;-55
2022/03/10 08:33:07;;;;;;;33.92;21.05;;;;;;;3.72;61.40;102309.00;5065341;28;20033;-56
2022/03/10 08:35:33;;;;;;;31.67;20.35;;;;;;;3.86;61.08;102306.13;5049801;28;20082;-56
2022/03/10 08:37:58;;;;;;;35.80;21.10;;;;;;;3.98;60.37;102312.53;5050110;28;20083;-56
2022/03/10 08:40:23;;;;;;;32.35;20.10;;;;;;;4.10;59.83;102309.06;5032282;28;20047;-55
2022/03/10 08:42:49;;;;;;;35.97;21.10;;;;;;;4.20;60.07;102303.91;5037768;28;20033;-56
2022/03/10 08:45:15;;;;;;;35.00;21.02;;;;;;;4.30;59.42;102304.19;5063525;28;20091;-56
2022/03/10 08:47:41;;;;;;;31.73;20.63;;;;;;;4.42;59.85;102301.53;5055398;28;20434;-56
2022/03/10 08:50:07;;;;;;;34.22;21.50;;;;;;;4.53;58.90;102303.50;5032237;28;20040;-55
2022/03/10 08:52:33;;;;;;;34.75;20.85;;;;;;;4.63;58.66;102304.88;5049935;28;20030;-56
2022/03/10 08:54:58;;;;;;;36.55;22.00;;;;;;;4.74;58.10;102304.09;5050082;28;20036;-56
2022/03/10 08:57:24;;;;;;;34.67;22.05;;;;;;;4.85;58.36;102302.50;5049917;28;20079;-56
2022/03/10 08:59:51;;;;;;;35.13;21.15;;;;;;;4.98;57.75;102304.22;5050288;28;20120;-56
2022/03/10 09:02:16;;;;;;;34.83;21.33;;;;;;;5.10;57.92;102296.00;5050137;28;20029;-57
2022/03/10 09:04:41;;;;;;;37.78;22.08;;;;;;;5.25;57.66;102299.16;5049948;28;20031;-55
2022/03/10 09:07:07;;;;;;;34.42;21.83;;;;;;;5.37;57.19;102293.72;5050178;28;20036;-57
2022/03/10 09:09:32;;;;;;;34.17;21.20;;;;;;;5.48;57.46;102289.31;5050166;28;20021;-54
2022/03/10 09:11:58;;;;;;;33.65;21.63;;;;;;;5.60;57.31;102283.81;5050333;28;20132;-56
2022/03/10 09:14:23;;;;;;;36.17;22.75;;;;;;;5.72;57.38;102283.81;5048411;28;20025;-55
2022/03/10 09:16:51;;;;;;;34.60;21.35;;;;;;;5.82;56.92;102278.59;5050185;28;20391;-56
2022/03/10 09:19:16;;;;;;;33.58;21.40;;;;;;;5.92;56.79;102278.81;5050147;28;20043;-55
2022/03/10 09:21:41;;;;;;;34.92;22.55;;;;;;;6.06;56.41;102276.69;5050023;28;20033;-55
2022/03/10 09:24:07;;;;;;;35.20;23.27;;;;;;;6.19;56.28;102269.28;5050102;28;20043;-55
2022/03/10 09:26:32;;;;;;;35.40;22.05;;;;;;;6.30;56.21;102268.44;5050094;28;20033;-56
2022/03/10 09:28:58;;;;;;;33.42;20.60;;;;;;;6.46;56.39;102266.00;5050295;28;20329;-55
2022/03/10 09:31:25;;;;;;;35.55;22.58;;;;;;;6.57;55.18;102259.63;5049942;28;20040;-54
2022/03/10 09:33:50;;;;;;;35.83;22.20;;;;;;;6.71;55.36;102257.41;5050473;28;20541;-55
2022/03/10 09:36:16;;;;;;;38.67;23.25;;;;;;;6.81;54.69;102254.03;5049900;28;20108;-55
2022/03/10 09:38:42;;;;;;;37.55;22.55;;;;;;;6.93;54.78;102257.56;5050278;28;20025;-55
2022/03/10 09:41:07;;;;;;;35.00;22.58;;;;;;;7.06;54.52;102261.91;5050017;28;20808;-54
2022/03/10 09:43:35;;;;;;;33.88;21.55;;;;;;;7.20;54.16;102250.59;5050355;28;20032;-56
2022/03/10 09:46:01;;;;;;;35.28;21.65;;;;;;;7.35;53.93;102253.59;5052688;28;20493;-56
2022/03/10 09:48:26;;;;;;;35.38;21.90;;;;;;;7.44;53.30;102246.59;5054252;28;20033;-56
2022/03/10 09:50:52;;;;;;;37.97;22.63;;;;;;;7.62;52.54;102251.03;5053772;28;20500;-55
2022/03/10 09:53:19;;;;;;;38.50;23.92;;;;;;;7.80;52.39;102244.41;5053947;28;20024;-57
2022/03/10 09:55:44;;;;;;;34.95;21.40;;;;;;;7.96;51.68;102241.88;5053559;28;20029;-56
2022/03/10 09:58:10;;;;;;;37.22;23.10;;;;;;;8.07;51.38;102245.59;5053829;28;20480;-56
2022/03/10 10:00:36;;;;;;;36.80;21.70;;;;;;;8.16;51.41;102241.31;5053513;28;20052;-56
2022/03/10 10:03:01;;;;;;;35.65;21.95;;;;;;;8.30;51.08;102244.53;5053365;28;20032;-56
2022/03/10 10:05:28;;;;;;;37.00;22.67;;;;;;;8.37;50.53;102227.78;5053202;28;20155;-56
2022/03/10 10:08:02;;;;;;;33.05;21.52;;;;;;;8.57;50.25;102236.34;5053665;28;20024;-55
2022/03/10 10:10:29;;;;;;;35.67;21.58;;;;;;;8.72;49.93;102238.44;5052984;28;20094;-55
2022/03/10 10:12:54;;;;;;;37.10;23.05;;;;;;;8.84;49.58;102237.44;5052896;28;20041;-56
2022/03/10 10:15:20;;;;;;;34.30;21.73;;;;;;;8.93;49.62;102235.88;5051021;28;20376;-55
2022/03/10 10:17:45;;;;;;;34.72;22.30;;;;;;;9.05;49.61;102233.78;5052387;28;20041;-56
2022/03/10 10:20:10;;;;;;;37.67;22.67;;;;;;;9.11;48.52;102229.16;5053449;28;20146;-55
2022/03/10 10:22:36;;;;;;;35.45;21.35;;;;;;;9.19;48.99;102233.38;5035191;28;20032;-56
2022/03/10 10:25:05;;;;;;;36.22;22.13;;;;;;;9.30;48.84;102231.50;5052778;28;20091;-57
2022/03/10 10:27:32;;;;;;;35.00;22.40;;;;;;;9.36;48.76;102223.00;5052854;28;20039;-56
2022/03/10 10:30:00;;;;;;;36.35;22.90;;;;;;;9.48;48.35;102228.34;5034845;28;20020;-56
2022/03/10 10:32:33;;;;;;;35.28;21.00;;;;;;;9.58;49.23;102222.06;5051795;28;20122;-56
2022/03/10 10:34:59;;;;;;;35.13;21.52;;;;;;;9.68;48.62;102218.53;5051041;28;20032;-55
2022/03/10 10:37:25;;;;;;;34.55;22.02;;;;;;;9.80;48.31;102215.56;5052079;28;20055;-55
2022/03/10 10:39:51;;;;;;;36.65;22.25;;;;;;;9.87;47.55;102218.09;5050791;28;20037;-56
2022/03/10 10:42:17;;;;;;;34.53;21.52;;;;;;;9.88;47.78;102209.53;5052584;28;20104;-55
2022/03/10 10:44:42;;;;;;;33.83;21.67;;;;;;;9.91;47.75;102208.19;5052301;28;20620;-56
2022/03/10 10:47:07;;;;;;;36.00;22.27;;;;;;;10.02;47.42;102214.59;5052169;28;20104;-56
2022/03/10 10:49:34;;;;;;;33.83;22.42;;;;;;;10.10;47.34;102206.63;5051813;28;20028;-56
2022/03/10 10:52:00;;;;;;;34.95;20.55;;;;;;;10.24;47.71;102204.19;5051032;28;20110;-56
2022/03/10 10:54:27;;;;;;;33.67;20.77;;;;;;;10.32;47.22;102191.75;5051888;28;20056;-56
2022/03/10 10:56:57;;;;;;;34.70;21.38;;;;;;;10.47;47.53;102209.56;5051433;28;20036;-56
2022/03/10 10:59:43;;;;;;;34.55;21.48;;;;;;;10.64;47.52;102201.00;5052151;28;20040;-56
2022/03/10 11:02:17;;;;;;;33.40;20.73;;;;;;;10.72;45.94;102181.13;5052332;28;20033;-56
2022/03/10 11:04:44;;;;;;;32.75;21.20;;;;;;;10.90;46.07;102191.66;5052086;28;20032;-57
2022/03/10 11:07:11;;;;;;;33.05;20.08;;;;;;;10.96;46.42;102195.22;5052262;28;20057;-57
2022/03/10 11:09:37;;;;;;;34.20;21.55;;;;;;;11.07;45.59;102194.13;5034219;28;20610;-55
2022/03/10 11:12:03;;;;;;;33.75;21.58;;;;;;;11.14;46.11;102184.75;5051738;28;20064;-55
2022/03/10 11:14:28;;;;;;;31.67;20.42;;;;;;;11.20;45.44;102187.22;5032090;28;20040;-55